createdAt,value
2017-08-31T00:02:08.862Z,20.47
2017-08-31T00:04:34.871Z,20.38
2017-08-31T00:07:00.646Z,20.53
2017-08-31T00:09:26.418Z,20.62
2017-08-31T00:11:52.198Z,20.65
2017-08-31T00:14:17.990Z,20.63
2017-08-31T00:16:43.751Z,20.64
2017-08-31T00:19:09.588Z,20.70
2017-08-31T00:21:35.344Z,20.78
2017-08-31T00:24:01.116Z,20.62
2017-08-31T00:26:26.902Z,20.61
2017-08-31T00:28:52.691Z,20.61
2017-08-31T00:31:19.139Z,20.71
2017-08-31T00:33:44.899Z,20.57
2017-08-31T00:36:10.667Z,20.67
2017-08-31T00:38:36.454Z,20.64
2017-08-31T00:41:02.264Z,20.55
2017-08-31T00:43:28.023Z,20.29
2017-08-31T00:45:53.843Z,20.04
2017-08-31T00:48:19.635Z,19.98
2017-08-31T00:50:45.434Z,19.95
2017-08-31T00:53:11.235Z,20.04
2017-08-31T00:55:37.071Z,20.07
2017-08-31T00:58:02.912Z,20.02
2017-08-31T01:00:28.684Z,20.11
2017-08-31T01:02:54.466Z,20.28
2017-08-31T01:05:20.272Z,20.35
2017-08-31T01:07:46.100Z,20.35
2017-08-31T01:10:11.883Z,20.34
2017-08-31T01:12:37.643Z,20.31
2017-08-31T01:15:03.503Z,20.20
2017-08-31T01:17:29.399Z,20.20
2017-08-31T01:19:55.179Z,20.18
2017-08-31T01:22:20.970Z,20.14
2017-08-31T01:24:46.858Z,20.03
2017-08-31T01:27:12.671Z,20.09
2017-08-31T01:29:38.479Z,20.02
2017-08-31T01:32:04.247Z,20.02
2017-08-31T01:34:30.011Z,19.96
2017-08-31T01:36:55.831Z,19.98
2017-08-31T01:39:21.627Z,20.01
2017-08-31T01:41:47.463Z,19.97
2017-08-31T01:44:13.231Z,19.92
2017-08-31T01:46:39.026Z,19.98
2017-08-31T01:49:04.830Z,20.03
2017-08-31T01:51:30.603Z,20.16
2017-08-31T01:53:56.440Z,20.14
2017-08-31T01:56:22.287Z,20.13
2017-08-31T01:58:48.079Z,20.13
2017-08-31T02:01:13.886Z,20.16
2017-08-31T02:03:39.647Z,20.14
2017-08-31T02:06:05.459Z,20.26
2017-08-31T02:08:31.349Z,20.31
2017-08-31T02:10:57.142Z,20.36
2017-08-31T02:13:22.902Z,20.08
2017-08-31T02:15:48.714Z,20.37
2017-08-31T02:18:15.155Z,20.29
2017-08-31T02:20:40.927Z,20.20
2017-08-31T02:23:06.730Z,20.25
2017-08-31T02:25:32.603Z,20.38
2017-08-31T02:27:58.379Z,20.45
2017-08-31T02:30:24.176Z,20.47
2017-08-31T02:32:49.975Z,20.46
2017-08-31T02:35:15.767Z,20.41
2017-08-31T02:37:41.526Z,20.38
2017-08-31T02:40:07.311Z,20.23
2017-08-31T02:42:33.096Z,20.35
2017-08-31T02:44:58.913Z,20.27
2017-08-31T02:47:24.687Z,20.28
2017-08-31T02:49:50.447Z,20.33
2017-08-31T02:52:16.223Z,20.36
2017-08-31T02:54:42.006Z,20.33
2017-08-31T02:57:07.767Z,20.37
2017-08-31T02:59:33.543Z,20.30
2017-08-31T03:01:59.335Z,20.30
2017-08-31T03:04:25.135Z,20.35
2017-08-31T03:06:51.006Z,20.44
2017-08-31T03:09:16.780Z,20.15
2017-08-31T03:11:42.544Z,19.95
2017-08-31T03:14:08.328Z,19.83
2017-08-31T03:16:34.091Z,19.74
2017-08-31T03:18:59.876Z,19.97
2017-08-31T03:21:25.658Z,20.15
2017-08-31T03:23:51.475Z,20.04
2017-08-31T03:26:17.282Z,20.02
2017-08-31T03:28:43.041Z,20.09
2017-08-31T03:31:08.809Z,20.01
2017-08-31T03:33:34.699Z,20.01
2017-08-31T03:36:00.454Z,19.99
2017-08-31T03:38:26.259Z,20.15
2017-08-31T03:40:52.012Z,20.08
2017-08-31T03:43:17.763Z,20.01
2017-08-31T03:45:43.539Z,19.96
2017-08-31T03:48:09.283Z,20.08
2017-08-31T03:50:35.035Z,20.04
2017-08-31T03:53:00.823Z,19.98
2017-08-31T03:55:26.571Z,19.93
2017-08-31T03:57:52.335Z,20.00
2017-08-31T04:00:18.155Z,20.02
2017-08-31T04:02:43.910Z,20.08
2017-08-31T04:05:09.714Z,20.06
2017-08-31T04:07:35.470Z,20.04
2017-08-31T04:10:01.364Z,20.04
2017-08-31T04:12:27.168Z,20.04
2017-08-31T04:14:52.979Z,20.05
2017-08-31T04:17:18.832Z,19.99
2017-08-31T04:19:44.618Z,19.93
2017-08-31T04:22:10.371Z,19.95
2017-08-31T04:24:36.151Z,19.89
2017-08-31T04:27:01.946Z,19.82
2017-08-31T04:29:27.724Z,19.67
2017-08-31T04:31:53.528Z,19.55
2017-08-31T04:34:19.307Z,19.49
2017-08-31T04:36:45.071Z,19.46
2017-08-31T04:39:10.852Z,19.40
2017-08-31T04:41:36.623Z,19.38
2017-08-31T04:44:02.391Z,19.35
2017-08-31T04:46:28.167Z,19.34
2017-08-31T04:48:53.928Z,19.47
2017-08-31T04:51:19.815Z,19.44
2017-08-31T04:53:45.590Z,19.48
2017-08-31T04:56:11.934Z,19.42
2017-08-31T04:58:37.703Z,19.41
2017-08-31T05:01:03.483Z,19.49
2017-08-31T05:03:29.272Z,19.55
2017-08-31T05:05:55.079Z,19.57
2017-08-31T05:08:20.851Z,19.53
2017-08-31T05:10:46.641Z,19.49
2017-08-31T05:13:12.448Z,19.42
2017-08-31T05:15:38.219Z,19.46
2017-08-31T05:18:04.022Z,19.42
2017-08-31T05:20:29.826Z,19.40
2017-08-31T05:22:55.660Z,19.42
2017-08-31T05:25:21.522Z,19.52
2017-08-31T05:27:47.383Z,19.43
2017-08-31T05:30:13.214Z,19.45
2017-08-31T05:32:39.346Z,19.39
2017-08-31T05:35:05.147Z,19.40
2017-08-31T05:37:30.932Z,19.33
2017-08-31T05:39:56.738Z,19.27
2017-08-31T05:42:22.515Z,19.18
2017-08-31T05:44:48.326Z,19.09
2017-08-31T05:47:14.139Z,18.96
2017-08-31T05:49:39.918Z,18.87
2017-08-31T05:52:05.691Z,18.82
2017-08-31T05:54:31.567Z,18.80
2017-08-31T05:56:57.351Z,18.82
2017-08-31T05:59:23.119Z,18.81
2017-08-31T06:01:48.931Z,18.86
2017-08-31T06:04:14.727Z,19.01
2017-08-31T06:06:40.489Z,18.95
2017-08-31T06:09:06.298Z,18.92
2017-08-31T06:11:32.080Z,19.04
2017-08-31T06:13:57.931Z,19.01
2017-08-31T06:16:23.790Z,19.14
2017-08-31T06:18:49.559Z,19.28
2017-08-31T06:21:15.343Z,19.37
2017-08-31T06:23:41.219Z,19.50
2017-08-31T06:26:07.024Z,19.41
2017-08-31T06:28:32.819Z,19.37
2017-08-31T06:30:58.683Z,19.41
2017-08-31T06:33:24.482Z,19.39
2017-08-31T06:35:50.252Z,19.36
2017-08-31T06:38:16.079Z,19.30
2017-08-31T06:40:41.908Z,19.35
2017-08-31T06:43:07.668Z,19.28
2017-08-31T06:45:33.454Z,19.56
2017-08-31T06:47:59.251Z,19.43
2017-08-31T06:50:25.022Z,19.56
2017-08-31T06:52:50.843Z,19.40
2017-08-31T06:55:16.599Z,19.44
2017-08-31T06:57:42.405Z,19.55
2017-08-31T07:00:08.150Z,19.59
2017-08-31T07:02:33.938Z,19.60
2017-08-31T07:04:59.727Z,19.70
2017-08-31T07:07:25.490Z,19.63
2017-08-31T07:09:51.247Z,19.79
2017-08-31T07:12:17.064Z,19.80
2017-08-31T07:14:42.819Z,19.90
2017-08-31T07:17:08.584Z,19.99
2017-08-31T07:19:34.367Z,19.98
2017-08-31T07:22:00.150Z,20.05
2017-08-31T07:24:25.920Z,20.04
2017-08-31T07:26:51.735Z,20.16
2017-08-31T07:29:17.521Z,20.25
2017-08-31T07:31:43.283Z,20.40
2017-08-31T07:34:09.082Z,20.54
2017-08-31T07:36:34.868Z,20.62
2017-08-31T07:39:00.632Z,20.61
2017-08-31T07:41:26.451Z,20.24
2017-08-31T07:43:52.218Z,20.07
2017-08-31T07:46:17.979Z,20.00
2017-08-31T07:48:43.767Z,20.02
2017-08-31T07:51:09.559Z,20.06
2017-08-31T07:53:35.342Z,20.16
2017-08-31T07:56:01.151Z,20.31
2017-08-31T07:58:26.924Z,20.23
2017-08-31T08:00:52.683Z,20.26
2017-08-31T08:03:18.488Z,20.40
2017-08-31T08:05:44.294Z,20.45
2017-08-31T08:08:10.063Z,20.35
2017-08-31T08:10:35.823Z,20.39
2017-08-31T08:13:01.611Z,20.22
2017-08-31T08:15:27.367Z,20.19
2017-08-31T08:17:53.150Z,20.26
2017-08-31T08:20:19.006Z,20.10
2017-08-31T08:22:44.796Z,19.76
2017-08-31T08:25:10.544Z,19.74
2017-08-31T08:27:36.295Z,19.78
2017-08-31T08:30:02.096Z,19.72
2017-08-31T08:32:27.875Z,19.74
2017-08-31T08:34:53.711Z,19.60
2017-08-31T08:37:19.476Z,19.54
2017-08-31T08:39:45.330Z,19.38
2017-08-31T08:42:11.077Z,19.38
2017-08-31T08:44:36.924Z,19.19
2017-08-31T08:47:02.706Z,18.95
2017-08-31T08:49:28.481Z,18.95
2017-08-31T08:51:54.291Z,18.55
2017-08-31T08:54:20.034Z,18.71
2017-08-31T08:56:45.784Z,18.36
2017-08-31T08:59:11.567Z,18.28
2017-08-31T09:01:37.315Z,18.18
2017-08-31T09:04:03.098Z,18.29
2017-08-31T09:06:28.885Z,18.09
2017-08-31T09:08:54.678Z,18.40
2017-08-31T09:11:20.424Z,18.27
2017-08-31T09:13:46.315Z,18.36
2017-08-31T09:16:12.104Z,18.51
2017-08-31T09:18:37.855Z,18.70
2017-08-31T09:21:03.623Z,18.59
2017-08-31T09:23:29.417Z,18.34
2017-08-31T09:25:55.182Z,18.18
2017-08-31T09:28:20.944Z,18.01
2017-08-31T09:30:46.732Z,18.08
2017-08-31T09:33:12.547Z,18.15
2017-08-31T09:35:38.309Z,18.33
2017-08-31T09:38:04.134Z,18.13
2017-08-31T09:40:29.907Z,18.42
2017-08-31T09:42:55.671Z,18.59
2017-08-31T09:45:21.450Z,18.65
2017-08-31T09:47:47.219Z,18.59
2017-08-31T09:50:12.992Z,18.67
2017-08-31T09:52:38.795Z,18.55
2017-08-31T09:55:04.659Z,18.45
2017-08-31T09:57:30.426Z,18.22
2017-08-31T09:59:56.220Z,18.03
2017-08-31T10:02:22.004Z,17.83
2017-08-31T10:04:47.779Z,17.52
2017-08-31T10:07:13.574Z,17.31
2017-08-31T10:09:40.448Z,17.39
2017-08-31T10:12:06.227Z,17.28
2017-08-31T10:14:32.067Z,17.44
2017-08-31T10:16:57.887Z,17.40
2017-08-31T10:19:23.691Z,17.44
2017-08-31T10:21:49.452Z,17.39
2017-08-31T10:24:15.235Z,17.53
2017-08-31T10:26:41.038Z,17.72
2017-08-31T10:29:06.812Z,17.90
2017-08-31T10:31:32.634Z,17.82
2017-08-31T10:33:58.463Z,17.58
2017-08-31T10:36:24.232Z,17.54
2017-08-31T10:38:50.031Z,17.68
2017-08-31T10:41:15.797Z,17.83
2017-08-31T10:43:41.651Z,17.53
2017-08-31T10:46:07.456Z,17.40
2017-08-31T10:48:33.231Z,17.39
2017-08-31T10:50:59.030Z,17.34
2017-08-31T10:53:24.837Z,17.26
2017-08-31T10:55:50.655Z,17.35
2017-08-31T10:58:16.536Z,17.53
2017-08-31T11:00:42.315Z,17.63
2017-08-31T11:03:08.102Z,17.53
2017-08-31T11:05:33.886Z,17.30
2017-08-31T11:07:59.678Z,17.28
2017-08-31T11:10:25.457Z,17.29
2017-08-31T11:12:51.261Z,17.20
2017-08-31T11:15:17.071Z,17.19
2017-08-31T11:17:43.027Z,17.24
2017-08-31T11:20:08.803Z,17.19
2017-08-31T11:22:34.581Z,17.47
2017-08-31T11:25:00.388Z,17.48
2017-08-31T11:27:26.337Z,17.20
2017-08-31T11:29:52.081Z,17.23
2017-08-31T11:32:17.865Z,17.24
2017-08-31T11:34:43.745Z,17.44
2017-08-31T11:37:09.441Z,17.47
2017-08-31T11:39:35.205Z,17.39
2017-08-31T11:42:00.954Z,17.55
2017-08-31T11:44:26.750Z,17.46
2017-08-31T11:46:52.550Z,17.62
2017-08-31T11:49:18.312Z,17.80
2017-08-31T11:51:44.111Z,17.74
2017-08-31T11:54:09.884Z,17.72
2017-08-31T11:56:35.639Z,17.92
2017-08-31T11:59:01.433Z,17.72
2017-08-31T12:01:27.193Z,17.55
2017-08-31T12:03:52.946Z,17.48
2017-08-31T12:06:18.747Z,17.37
2017-08-31T12:08:44.547Z,17.59
2017-08-31T12:11:10.319Z,17.83
2017-08-31T12:13:36.139Z,18.32
2017-08-31T12:16:01.900Z,18.33
2017-08-31T12:18:27.716Z,18.38
2017-08-31T12:20:53.583Z,18.93
2017-08-31T12:25:45.035Z,18.55
2017-08-31T12:28:10.848Z,18.48
2017-08-31T12:30:36.639Z,18.22
2017-08-31T12:33:02.402Z,17.66
2017-08-31T12:35:28.199Z,17.70
2017-08-31T12:37:53.948Z,17.63
2017-08-31T12:40:19.839Z,17.26
2017-08-31T12:42:45.654Z,17.05
2017-08-31T12:45:11.475Z,17.03
2017-08-31T12:47:37.294Z,17.00
2017-08-31T12:50:03.083Z,16.86
2017-08-31T12:52:28.842Z,17.02
2017-08-31T12:54:56.058Z,17.16
2017-08-31T12:57:21.868Z,16.99
2017-08-31T12:59:47.617Z,16.97
2017-08-31T13:02:13.508Z,16.86
2017-08-31T13:04:39.282Z,16.61
2017-08-31T13:07:05.091Z,16.65
2017-08-31T13:09:30.843Z,16.38
2017-08-31T13:11:56.676Z,16.23
2017-08-31T13:14:22.483Z,16.23
2017-08-31T13:16:48.279Z,16.07
2017-08-31T13:19:14.061Z,16.15
2017-08-31T13:21:39.814Z,16.03
2017-08-31T13:24:05.591Z,16.19
2017-08-31T13:26:31.363Z,15.98
2017-08-31T13:28:57.165Z,15.93
2017-08-31T13:31:22.965Z,15.89
2017-08-31T13:33:48.718Z,15.94
2017-08-31T13:36:14.484Z,15.99
2017-08-31T13:38:40.366Z,15.90
2017-08-31T13:41:06.129Z,16.10
2017-08-31T13:43:31.918Z,16.06
2017-08-31T13:45:57.683Z,16.02
2017-08-31T13:48:23.483Z,16.12
2017-08-31T13:50:49.294Z,16.06
2017-08-31T13:53:15.043Z,16.04
2017-08-31T13:55:40.830Z,16.16
2017-08-31T13:58:06.611Z,16.27
2017-08-31T14:00:32.375Z,16.14
2017-08-31T14:02:58.120Z,16.00
2017-08-31T14:05:24.439Z,16.14
2017-08-31T14:07:50.671Z,16.01
2017-08-31T14:10:16.907Z,15.95
2017-08-31T14:12:44.167Z,15.88
2017-08-31T14:15:10.398Z,15.98
2017-08-31T14:17:36.735Z,16.10
2017-08-31T14:20:02.966Z,16.17
2017-08-31T14:22:29.103Z,16.08
2017-08-31T14:24:55.335Z,16.07
2017-08-31T14:27:21.466Z,16.15
2017-08-31T14:29:47.231Z,15.99
2017-08-31T14:32:13.088Z,16.16
2017-08-31T14:34:38.930Z,16.23
2017-08-31T14:37:04.783Z,16.45
2017-08-31T14:39:30.595Z,16.58
2017-08-31T14:41:56.399Z,16.41
2017-08-31T14:44:22.204Z,16.45
2017-08-31T14:46:47.967Z,16.65
2017-08-31T14:49:13.764Z,16.37
2017-08-31T14:51:39.528Z,16.28
2017-08-31T14:54:05.299Z,16.27
2017-08-31T14:56:31.107Z,16.24
2017-08-31T14:58:56.991Z,16.01
2017-08-31T15:01:22.780Z,16.06
2017-08-31T15:03:48.555Z,15.77
2017-08-31T15:06:14.341Z,15.73
2017-08-31T15:08:40.168Z,15.69
2017-08-31T15:11:06.045Z,15.61
2017-08-31T15:13:31.882Z,15.48
2017-08-31T15:15:57.644Z,15.48
2017-08-31T15:18:23.507Z,15.54
2017-08-31T15:20:49.306Z,15.46
2017-08-31T15:23:15.138Z,15.47
2017-08-31T15:25:40.903Z,15.38
2017-08-31T15:28:06.705Z,15.24
2017-08-31T15:30:32.598Z,15.44
2017-08-31T15:32:58.362Z,15.55
2017-08-31T15:35:24.159Z,15.53
2017-08-31T15:37:50.039Z,15.47
2017-08-31T15:40:15.807Z,15.56
2017-08-31T15:42:41.655Z,15.69
2017-08-31T15:45:07.483Z,15.70
2017-08-31T15:47:33.252Z,15.70
2017-08-31T15:49:59.015Z,15.63
2017-08-31T15:52:24.792Z,15.67
2017-08-31T15:54:50.563Z,15.82
2017-08-31T15:57:16.351Z,15.82
2017-08-31T15:59:42.181Z,15.81
2017-08-31T16:02:07.964Z,15.91
2017-08-31T16:04:33.734Z,15.81
2017-08-31T16:06:59.539Z,15.80
2017-08-31T16:09:25.314Z,15.87
2017-08-31T16:11:51.059Z,15.88
2017-08-31T16:14:16.854Z,16.02
2017-08-31T16:16:42.647Z,16.21
2017-08-31T16:19:08.415Z,16.46
2017-08-31T16:21:34.175Z,16.28
2017-08-31T16:23:59.976Z,16.16
2017-08-31T16:26:25.747Z,16.00
2017-08-31T16:28:51.567Z,16.03
2017-08-31T16:31:17.360Z,16.23
2017-08-31T16:33:43.147Z,16.21
2017-08-31T16:36:08.946Z,16.06
2017-08-31T16:38:34.740Z,15.79
2017-08-31T16:41:00.522Z,15.74
2017-08-31T16:43:26.323Z,15.77
2017-08-31T16:45:52.101Z,15.88
2017-08-31T16:48:17.896Z,15.85
2017-08-31T16:50:43.695Z,15.70
2017-08-31T16:53:09.490Z,15.67
2017-08-31T16:55:35.258Z,15.74
2017-08-31T16:58:01.018Z,15.74
2017-08-31T17:00:26.868Z,15.79
2017-08-31T17:02:52.655Z,15.77
2017-08-31T17:05:18.442Z,15.70
2017-08-31T17:07:44.217Z,15.87
2017-08-31T17:10:09.976Z,15.72
2017-08-31T17:12:35.774Z,15.69
2017-08-31T17:15:01.663Z,15.67
2017-08-31T17:17:27.439Z,15.51
2017-08-31T17:19:53.331Z,15.55
2017-08-31T17:22:19.103Z,15.60
2017-08-31T17:24:44.850Z,15.51
2017-08-31T17:27:10.693Z,15.46
2017-08-31T17:29:36.449Z,15.58
2017-08-31T17:32:02.224Z,15.46
2017-08-31T17:34:28.051Z,15.50
2017-08-31T17:36:53.839Z,15.46
2017-08-31T17:39:19.635Z,15.48
2017-08-31T17:41:45.390Z,15.51
2017-08-31T17:44:11.262Z,15.37
2017-08-31T17:46:37.043Z,15.40
2017-08-31T17:49:02.811Z,15.47
2017-08-31T17:51:28.595Z,15.37
2017-08-31T17:53:54.351Z,15.31
2017-08-31T17:56:20.143Z,15.31
2017-08-31T17:58:45.891Z,15.23
2017-08-31T18:01:11.652Z,15.11
2017-08-31T18:03:37.439Z,15.06
2017-08-31T18:06:03.250Z,15.08
2017-08-31T18:08:29.031Z,14.88
2017-08-31T18:10:54.894Z,15.03
2017-08-31T18:13:20.666Z,15.02
2017-08-31T18:15:46.450Z,14.77
2017-08-31T18:18:12.315Z,14.65
2017-08-31T18:20:38.073Z,14.83
2017-08-31T18:23:03.851Z,14.81
2017-08-31T18:25:29.634Z,14.82
2017-08-31T18:27:55.394Z,14.94
2017-08-31T18:30:21.160Z,14.74
2017-08-31T18:32:46.983Z,14.86
2017-08-31T18:35:12.739Z,14.80
2017-08-31T18:37:38.537Z,14.91
2017-08-31T18:40:04.302Z,14.79
2017-08-31T18:42:30.083Z,14.78
2017-08-31T18:44:55.843Z,14.77
2017-08-31T18:47:22.199Z,14.80
2017-08-31T18:49:48.028Z,14.79
2017-08-31T18:52:13.777Z,14.75
2017-08-31T18:54:39.589Z,14.86
2017-08-31T18:57:05.338Z,14.75
2017-08-31T18:59:31.107Z,14.81
2017-08-31T19:01:56.907Z,14.78
2017-08-31T19:04:22.671Z,14.68
2017-08-31T19:06:48.431Z,14.73
2017-08-31T19:09:14.223Z,14.73
2017-08-31T19:11:40.048Z,14.78
2017-08-31T19:14:05.798Z,14.83
2017-08-31T19:16:31.572Z,14.73
2017-08-31T19:18:57.355Z,14.75
2017-08-31T19:21:23.211Z,14.61
2017-08-31T19:23:49.012Z,14.86
2017-08-31T19:26:14.824Z,14.83
2017-08-31T19:28:41.392Z,14.72
2017-08-31T19:31:07.154Z,14.94
2017-08-31T19:33:33.001Z,14.84
2017-08-31T19:35:58.765Z,14.75
2017-08-31T19:38:24.611Z,14.86
2017-08-31T19:40:50.411Z,14.73
2017-08-31T19:43:16.200Z,14.74
2017-08-31T19:45:42.035Z,14.71
2017-08-31T19:48:07.794Z,14.64
2017-08-31T19:50:33.543Z,14.61
2017-08-31T19:52:59.390Z,14.69
2017-08-31T19:55:25.295Z,14.90
2017-08-31T19:57:51.118Z,14.87
2017-08-31T20:00:16.982Z,14.62
2017-08-31T20:02:42.740Z,14.56
2017-08-31T20:05:08.575Z,14.65
2017-08-31T20:07:34.387Z,14.73
2017-08-31T20:10:00.263Z,14.67
2017-08-31T20:12:26.023Z,14.77
2017-08-31T20:14:51.904Z,14.87
2017-08-31T20:17:17.734Z,14.90
2017-08-31T20:19:43.484Z,14.91
2017-08-31T20:22:09.238Z,14.86
2017-08-31T20:24:35.031Z,14.90
2017-08-31T20:27:00.858Z,14.84
2017-08-31T20:29:26.612Z,14.83
2017-08-31T20:31:52.405Z,14.83
2017-08-31T20:34:18.161Z,14.80
2017-08-31T20:36:44.002Z,14.75
2017-08-31T20:39:09.779Z,14.69
2017-08-31T20:41:35.540Z,14.74
2017-08-31T20:44:01.328Z,14.69
2017-08-31T20:46:27.095Z,14.81
2017-08-31T20:48:52.876Z,14.76
2017-08-31T20:51:18.635Z,14.81
2017-08-31T20:53:44.428Z,14.87
2017-08-31T20:56:10.300Z,14.69
2017-08-31T20:58:36.093Z,14.70
2017-08-31T21:01:01.983Z,14.73
2017-08-31T21:03:27.762Z,14.68
2017-08-31T21:05:53.607Z,14.67
2017-08-31T21:08:19.397Z,14.68
2017-08-31T21:10:45.235Z,14.69
2017-08-31T21:13:10.984Z,14.79
2017-08-31T21:15:36.798Z,14.68
2017-08-31T21:18:02.559Z,14.65
2017-08-31T21:20:28.308Z,14.72
2017-08-31T21:22:54.231Z,14.72
2017-08-31T21:25:19.991Z,14.64
2017-08-31T21:27:45.750Z,14.59
2017-08-31T21:30:11.580Z,14.73
2017-08-31T21:32:37.362Z,14.76
2017-08-31T21:35:03.111Z,14.80
2017-08-31T21:37:28.931Z,14.58
2017-08-31T21:39:54.678Z,14.79
2017-08-31T21:42:20.480Z,14.73
2017-08-31T21:44:46.307Z,14.74
2017-08-31T21:47:12.054Z,14.61
2017-08-31T21:49:37.811Z,14.61
2017-08-31T21:52:03.615Z,14.77
2017-08-31T21:54:29.372Z,14.54
2017-08-31T21:56:55.126Z,14.66
2017-08-31T21:59:20.912Z,14.58
2017-08-31T22:01:46.711Z,14.58
2017-08-31T22:04:12.472Z,14.53
2017-08-31T22:06:38.245Z,14.58
2017-08-31T22:09:04.059Z,14.69
2017-08-31T22:11:29.835Z,14.65
2017-08-31T22:13:55.599Z,14.55
2017-08-31T22:16:21.394Z,14.47
2017-08-31T22:18:47.159Z,14.57
2017-08-31T22:21:12.962Z,14.55
2017-08-31T22:23:38.783Z,14.58
2017-08-31T22:26:04.575Z,14.56
2017-08-31T22:28:30.334Z,14.64
2017-08-31T22:30:56.083Z,14.53
2017-08-31T22:33:22.844Z,14.51
2017-08-31T22:35:48.747Z,14.70
2017-08-31T22:38:14.516Z,14.77
2017-08-31T22:40:40.383Z,14.55
2017-08-31T22:43:06.179Z,14.55
2017-08-31T22:45:31.944Z,14.41
2017-08-31T22:47:57.732Z,14.37
2017-08-31T22:50:23.611Z,14.30
2017-08-31T22:52:49.377Z,14.28
2017-08-31T22:55:17.255Z,14.36
2017-08-31T22:57:55.379Z,14.38
2017-08-31T23:00:21.151Z,14.39
2017-08-31T23:02:46.935Z,14.22
2017-08-31T23:05:12.700Z,14.13
2017-08-31T23:07:38.461Z,14.09
2017-08-31T23:10:04.307Z,14.16
2017-08-31T23:12:30.096Z,14.26
2017-08-31T23:14:55.912Z,14.33
2017-08-31T23:17:21.707Z,14.29
2017-08-31T23:19:47.495Z,14.22
2017-08-31T23:22:13.268Z,14.21
2017-08-31T23:24:39.055Z,14.14
2017-08-31T23:27:04.836Z,14.21
2017-08-31T23:29:30.684Z,14.15
2017-08-31T23:31:56.511Z,14.16
2017-08-31T23:34:22.272Z,14.24
2017-08-31T23:36:48.107Z,14.16
2017-08-31T23:39:13.883Z,14.14
2017-08-31T23:41:39.639Z,14.09
2017-08-31T23:44:05.420Z,14.19
2017-08-31T23:46:31.219Z,14.17
2017-08-31T23:48:57.008Z,14.11
2017-08-31T23:51:22.785Z,14.17
2017-08-31T23:53:48.588Z,14.24
2017-08-31T23:56:14.483Z,14.16
2017-08-31T23:58:40.243Z,14.18
